Time;durP1;ratioP1;P1;durP2;ratioP2;P2;SDS_P1;SDS_P2;PMS_P1;PMS_P2;Temp;Humidity;BMP_temperature;BMP_pressure;BME280_temperature;BME280_humidity;BME280_pressure;Samples;Min_cycle;Max_cycle;Signal;HPM_P1;HPM_P2
2023/04/13 00:00:20;;;;;;;0.22;0.22;;;;;;;7.91;88.35;96114.66;5032448;28;20562;-72
2023/04/13 00:02:52;;;;;;;0.50;0.50;;;;;;;7.82;88.08;96120.44;5031724;28;20049;-72
2023/04/13 00:05:21;;;;;;;0.22;0.22;;;;;;;7.76;88.22;96114.16;5030296;28;20100;-75
2023/04/13 00:07:49;;;;;;;0.20;0.20;;;;;;;7.71;88.53;96125.41;5032180;28;20073;-72
2023/04/13 00:10:19;;;;;;;0.10;0.10;;;;;;;7.67;88.59;96134.84;5032058;28;20099;-72
2023/04/13 00:12:47;;;;;;;0.35;0.35;;;;;;;7.70;88.63;96133.56;5032244;28;20045;-72
2023/04/13 00:15:18;;;;;;;0.30;0.30;;;;;;;7.70;88.90;96120.28;5031286;28;20045;-72
2023/04/13 00:17:46;;;;;;;0.45;0.45;;;;;;;7.72;88.31;96111.09;5031456;28;20101;-72
2023/04/13 00:20:14;;;;;;;0.20;0.20;;;;;;;7.77;88.29;96105.16;5032303;28;20045;-73
2023/04/13 00:22:42;;;;;;;0.32;0.32;;;;;;;7.94;87.51;96129.34;5031667;28;20168;-73
2023/04/13 00:25:13;;;;;;;0.20;0.20;;;;;;;8.00;87.45;96123.16;5029799;28;20033;-73
2023/04/13 00:27:41;;;;;;;0.30;0.30;;;;;;;8.00;86.58;96131.13;5031294;28;20052;-73
2023/04/13 00:30:10;;;;;;;0.40;0.40;;;;;;;7.95;86.69;96129.16;5030018;28;20044;-72
2023/04/13 00:32:41;;;;;;;0.20;0.20;;;;;;;7.89;86.06;96139.81;5032418;28;20053;-73
2023/04/13 00:35:09;;;;;;;0.13;0.13;;;;;;;7.89;85.28;96139.81;5029701;28;20115;-73
2023/04/13 00:37:37;;;;;;;0.10;0.10;;;;;;;7.77;84.41;96131.72;5029589;28;20045;-75
2023/04/13 00:40:06;;;;;;;0.20;0.20;;;;;;;7.77;84.17;96131.72;5022444;28;20512;-73
2023/04/13 00:42:34;;;;;;;0.20;0.20;;;;;;;7.69;83.36;96138.06;5031701;28;20045;-72
2023/04/13 00:45:02;;;;;;;0.30;0.30;;;;;;;7.68;83.44;96141.75;5029501;28;20073;-75
2023/04/13 00:47:34;;;;;;;0.25;0.25;;;;;;;7.68;83.38;96140.97;5026826;28;20087;-74
2023/04/13 00:50:06;;;;;;;0.32;0.32;;;;;;;7.67;83.16;96131.38;5031606;28;20591;-74
2023/04/13 00:52:37;;;;;;;0.20;0.20;;;;;;;7.66;82.81;96141.16;5027430;28;20045;-74
2023/04/13 00:55:06;;;;;;;0.32;0.32;;;;;;;7.72;82.57;96148.28;5025901;28;20484;-75
2023/04/13 00:57:35;;;;;;;0.22;0.22;;;;;;;7.69;82.17;96148.69;5029373;28;20470;-74
2023/04/13 01:00:07;;;;;;;0.35;0.35;;;;;;;7.70;81.38;96138.88;5025561;28;20046;-74
2023/04/13 01:02:35;;;;;;;0.32;0.32;;;;;;;7.73;81.07;96126.00;5030028;28;20523;-74
2023/04/13 01:05:05;;;;;;;0.10;0.10;;;;;;;7.86;80.71;96130.44;5028815;28;20045;-74
2023/04/13 01:07:36;;;;;;;0.43;0.43;;;;;;;7.97;80.45;96152.84;5028396;28;20042;-74
2023/04/13 01:10:10;;;;;;;0.20;0.20;;;;;;;7.97;80.36;96142.22;5040714;28;20048;-75
2023/04/13 01:12:41;;;;;;;0.40;0.40;;;;;;;7.99;80.62;96148.13;5031302;28;20528;-72
2023/04/13 01:15:13;;;;;;;0.32;0.32;;;;;;;7.98;80.50;96147.31;5029045;28;20048;-74
2023/04/13 01:17:44;;;;;;;0.30;0.30;;;;;;;7.91;81.10;96151.84;5039034;23;20060;-73
2023/04/13 01:20:15;;;;;;;0.20;0.20;;;;;;;7.73;81.64;96162.38;5011680;28;20053;-70
2023/04/13 01:22:49;;;;;;;0.25;0.25;;;;;;;7.80;81.67;96168.44;5013475;28;20140;-70
2023/04/13 01:25:37;;;;;;;0.20;0.20;;;;;;;7.81;81.18;96171.91;5009101;28;20048;-70
2023/04/13 01:28:08;;;;;;;0.20;0.20;;;;;;;7.77;81.53;96176.03;5013698;28;20095;-71
2023/04/13 01:30:37;;;;;;;0.35;0.35;;;;;;;7.79;81.27;96182.75;5009877;28;20042;-70
2023/04/13 01:33:05;;;;;;;0.20;0.20;;;;;;;7.65;82.06;96173.25;5012344;28;20069;-71
2023/04/13 01:35:36;;;;;;;0.30;0.30;;;;;;;7.61;82.19;96166.72;5015380;28;20034;-71
2023/04/13 01:38:07;;;;;;;0.32;0.32;;;;;;;7.57;82.40;96161.03;5014914;28;20500;-70
2023/04/13 01:40:40;;;;;;;0.10;0.10;;;;;;;7.54;82.65;96158.78;5014593;28;20046;-71
2023/04/13 01:43:11;;;;;;;0.43;0.43;;;;;;;7.52;82.78;96160.84;5015903;28;20141;-71
2023/04/13 01:45:47;;;;;;;0.20;0.20;;;;;;;7.59;82.37;96152.81;5020950;28;20096;-71
2023/04/13 01:48:20;;;;;;;0.10;0.10;;;;;;;7.57;82.52;96153.06;5011636;28;20057;-72
2023/04/13 01:51:06;;;;;;;0.22;0.22;;;;;;;7.56;82.75;96169.19;5010502;28;20141;-71
2023/04/13 01:53:43;;;;;;;0.20;0.20;;;;;;;7.55;82.72;96172.88;5010843;28;20149;-72
2023/04/13 01:56:15;;;;;;;0.32;0.32;;;;;;;7.54;81.91;96173.91;5010283;28;20042;-72
2023/04/13 01:58:46;;;;;;;0.15;0.15;;;;;;;7.53;81.93;96194.31;5009519;28;20463;-71
2023/04/13 02:01:14;;;;;;;0.20;0.20;;;;;;;7.45;81.68;96189.25;5026516;28;20509;-72
2023/04/13 02:03:44;;;;;;;0.20;0.20;;;;;;;7.37;81.71;96184.97;5010907;28;20072;-73
2023/04/13 02:06:12;;;;;;;0.28;0.28;;;;;;;7.36;81.23;96182.56;5009442;28;20050;-72
2023/04/13 02:08:41;;;;;;;0.20;0.20;;;;;;;7.41;81.47;96172.09;5016066;28;20061;-71
2023/04/13 02:11:11;;;;;;;0.40;0.40;;;;;;;7.36;80.26;96167.44;5010338;28;20046;-71
2023/04/13 02:13:38;;;;;;;0.20;0.20;;;;;;;7.34;80.71;96171.31;5017085;28;20058;-71
2023/04/13 02:16:09;;;;;;;0.10;0.10;;;;;;;7.33;80.48;96177.66;5027657;28;20069;-71
2023/04/13 02:18:37;;;;;;;0.25;0.22;;;;;;;7.28;80.54;96175.59;5015333;28;20064;-72
2023/04/13 02:21:08;;;;;;;0.25;0.25;;;;;;;7.25;80.07;96170.75;5015607;28;20041;-71
2023/04/13 02:23:36;;;;;;;0.25;0.25;;;;;;;7.26;80.29;96168.91;5025591;28;20038;-71
2023/04/13 02:26:06;;;;;;;0.20;0.20;;;;;;;7.24;80.07;96176.25;5011515;28;20042;-71
2023/04/13 02:28:34;;;;;;;0.30;0.30;;;;;;;7.20;80.26;96178.50;5013013;28;20046;-74
2023/04/13 02:31:02;;;;;;;0.22;0.22;;;;;;;7.17;79.76;96181.56;5013481;28;20110;-73
2023/04/13 02:33:32;;;;;;;0.20;0.20;;;;;;;7.19;80.08;96191.97;5029602;28;20038;-71
2023/04/13 02:36:01;;;;;;;0.20;0.20;;;;;;;7.20;79.07;96167.88;5009874;28;20467;-72
2023/04/13 02:38:32;;;;;;;0.20;0.20;;;;;;;7.19;78.90;96178.69;5029064;28;20046;-71
2023/04/13 02:41:07;;;;;;;0.20;0.20;;;;;;;7.18;78.31;96185.03;5013081;28;20070;-73
2023/04/13 02:43:35;;;;;;;0.20;0.20;;;;;;;7.10;78.34;96187.91;5013042;28;20103;-73
2023/04/13 02:46:03;;;;;;;0.32;0.32;;;;;;;7.16;78.16;96189.75;5027751;28;20038;-73
2023/04/13 02:48:37;;;;;;;0.13;0.13;;;;;;;7.15;77.04;96186.28;5008587;28;20042;-73
2023/04/13 02:51:06;;;;;;;0.22;0.22;;;;;;;7.26;76.92;96201.56;5011327;28;20398;-74
2023/04/13 02:53:38;;;;;;;0.32;0.32;;;;;;;7.23;76.39;96212.59;5012825;28;20484;-73
2023/04/13 02:56:08;;;;;;;0.22;0.22;;;;;;;7.13;76.35;96203.44;5011532;28;20064;-74
2023/04/13 02:58:36;;;;;;;0.20;0.20;;;;;;;7.05;75.94;96201.81;5025960;28;20153;-73
2023/04/13 03:01:08;;;;;;;0.20;0.20;;;;;;;7.00;75.92;96215.69;5010023;28;20497;-73
2023/04/13 03:03:39;;;;;;;0.30;0.30;;;;;;;7.03;75.78;96219.78;5023174;28;20485;-73
2023/04/13 03:06:07;;;;;;;0.20;0.20;;;;;;;7.07;75.47;96226.28;5011456;28;20053;-73
2023/04/13 03:08:45;;;;;;;0.55;0.55;;;;;;;6.97;75.10;96226.69;5024740;28;20054;-72
2023/04/13 03:11:18;;;;;;;0.20;0.20;;;;;;;6.99;75.16;96231.81;5011559;28;20041;-72
2023/04/13 03:13:53;;;;;;;0.32;0.32;;;;;;;6.91;75.19;96216.09;5007844;28;20046;-73
2023/04/13 03:16:20;;;;;;;0.20;0.20;;;;;;;6.91;75.11;96205.50;5004283;28;20183;-73
2023/04/13 03:18:50;;;;;;;0.30;0.30;;;;;;;6.89;74.85;96173.88;5015001;28;20050;-74
2023/04/13 03:21:17;;;;;;;0.40;0.40;;;;;;;6.91;74.36;96163.06;5001530;28;20042;-73
2023/04/13 03:23:57;;;;;;;0.20;0.20;;;;;;;6.87;74.91;96170.59;5011962;28;20779;-73
2023/04/13 03:26:25;;;;;;;0.20;0.20;;;;;;;6.95;75.17;96157.16;5012628;28;20048;-72
2023/04/13 03:28:55;;;;;;;0.20;0.20;;;;;;;6.89;75.56;96160.63;5018241;28;20053;-73
2023/04/13 03:31:24;;;;;;;0.20;0.20;;;;;;;6.85;75.29;96163.91;5031378;28;20421;-73
2023/04/13 03:33:54;;;;;;;0.20;0.20;;;;;;;6.81;74.73;96175.94;5016235;28;20178;-73
2023/04/13 03:36:21;;;;;;;0.20;0.20;;;;;;;6.79;74.60;96162.88;5011396;28;20052;-73
2023/04/13 03:38:49;;;;;;;0.22;0.22;;;;;;;6.79;74.84;96152.28;5011433;28;20089;-74
2023/04/13 03:41:17;;;;;;;0.20;0.20;;;;;;;6.80;74.63;96176.94;5011636;28;20557;-73
2023/04/13 03:43:47;;;;;;;0.10;0.10;;;;;;;6.77;75.05;96187.97;5011726;28;20497;-73
2023/04/13 03:46:14;;;;;;;0.20;0.20;;;;;;;6.71;75.05;96202.06;5011730;28;20046;-73
2023/04/13 03:48:43;;;;;;;0.30;0.30;;;;;;;6.70;75.39;96208.38;5011558;28;20045;-72
2023/04/13 03:51:20;;;;;;;0.38;0.38;;;;;;;6.67;75.52;96198.16;5009720;28;20453;-73
2023/04/13 03:53:50;;;;;;;0.30;0.30;;;;;;;6.59;76.09;96207.16;5011707;28;20145;-72
2023/04/13 03:56:22;;;;;;;0.10;0.10;;;;;;;6.58;76.09;96206.34;5009624;28;20069;-73
2023/04/13 03:58:50;;;;;;;0.28;0.25;;;;;;;6.61;76.61;96197.16;5011387;28;20049;-73
2023/04/13 04:01:23;;;;;;;0.30;0.30;;;;;;;6.56;76.94;96196.94;5023224;28;20397;-72
2023/04/13 04:03:54;;;;;;;0.13;0.13;;;;;;;6.54;76.99;96194.50;5011724;28;20057;-72
2023/04/13 04:06:25;;;;;;;0.20;0.20;;;;;;;6.56;76.93;96202.25;5017642;28;20097;-72
2023/04/13 04:09:05;;;;;;;0.30;0.30;;;;;;;6.58;77.23;96208.16;5010109;28;20049;-72
2023/04/13 04:11:41;;;;;;;0.20;0.20;;;;;;;6.54;77.56;96209.59;5013115;28;20056;-72
2023/04/13 04:14:10;;;;;;;0.35;0.35;;;;;;;6.52;77.60;96211.63;5010589;28;20042;-72
2023/04/13 04:16:42;;;;;;;0.20;0.20;;;;;;;6.49;77.61;96204.91;5010292;28;20042;-72
2023/04/13 04:19:13;;;;;;;0.32;0.32;;;;;;;6.47;77.80;96200.81;5009089;28;20128;-73
2023/04/13 04:21:43;;;;;;;0.13;0.13;;;;;;;6.47;77.43;96209.59;5009163;28;20050;-73
2023/04/13 04:24:19;;;;;;;0.38;0.38;;;;;;;6.44;77.85;96222.41;5003620;28;20092;-72
2023/04/13 04:26:49;;;;;;;0.22;0.22;;;;;;;6.40;78.27;96231.81;5010545;28;20054;-72
2023/04/13 04:29:20;;;;;;;0.40;0.40;;;;;;;6.44;78.02;96227.72;5017543;28;20497;-72
2023/04/13 04:31:52;;;;;;;0.35;0.35;;;;;;;6.43;78.28;96220.81;5011194;28;20046;-72
2023/04/13 04:34:23;;;;;;;0.17;0.17;;;;;;;6.46;77.72;96225.69;5006072;28;20096;-72
2023/04/13 04:36:52;;;;;;;0.20;0.20;;;;;;;6.41;78.29;96221.00;5010474;28;20068;-73
2023/04/13 04:39:22;;;;;;;0.20;0.20;;;;;;;6.40;78.51;96224.69;4980841;28;20043;-72
2023/04/13 04:42:02;;;;;;;0.40;0.40;;;;;;;6.51;78.03;96228.56;4961687;28;20051;-73
2023/04/13 04:44:32;;;;;;;0.20;0.20;;;;;;;6.40;78.59;96229.16;4966526;28;20053;-73
2023/04/13 04:47:05;;;;;;;0.43;0.43;;;;;;;6.40;78.34;96226.50;4964843;28;20568;-73
2023/04/13 04:49:40;;;;;;;0.40;0.40;;;;;;;6.35;78.88;96250.13;4967584;28;20057;-73
2023/04/13 04:52:11;;;;;;;0.22;0.22;;;;;;;6.37;79.10;96245.44;4967446;28;20382;-73
2023/04/13 04:54:39;;;;;;;0.22;0.22;;;;;;;6.46;78.88;96236.28;4966800;28;20418;-73
2023/04/13 04:57:09;;;;;;;0.10;0.10;;;;;;;6.50;78.85;96245.47;4975165;28;20050;-73
2023/04/13 04:59:39;;;;;;;0.17;0.17;;;;;;;6.49;79.06;96249.13;5001373;28;20070;-74
2023/04/13 05:02:07;;;;;;;0.40;0.35;;;;;;;6.41;78.91;96252.00;4971892;28;20070;-73
2023/04/13 05:04:35;;;;;;;0.22;0.22;;;;;;;6.45;79.27;96250.56;4969087;28;20054;-73
2023/04/13 05:07:04;;;;;;;0.10;0.10;;;;;;;6.49;78.87;96252.59;4970864;28;20042;-73
2023/04/13 05:09:38;;;;;;;0.32;0.32;;;;;;;6.46;78.95;96260.94;5000535;28;20043;-73
2023/04/13 05:12:06;;;;;;;0.22;0.22;;;;;;;6.47;78.84;96246.69;5002493;28;20086;-73
2023/04/13 05:14:37;;;;;;;0.20;0.20;;;;;;;6.45;78.44;96254.03;4975713;28;20047;-72
2023/04/13 05:17:06;;;;;;;0.20;0.20;;;;;;;6.54;78.18;96259.97;4996319;28;20061;-72
2023/04/13 05:19:37;;;;;;;0.13;0.13;;;;;;;6.50;77.50;96261.38;4971937;28;20089;-73
2023/04/13 05:22:24;;;;;;;0.20;0.20;;;;;;;6.50;77.49;96246.28;4962226;28;20522;-74
2023/04/13 05:25:00;;;;;;;0.30;0.30;;;;;;;6.53;77.50;96255.69;4980402;28;20050;-73
2023/04/13 05:27:29;;;;;;;0.10;0.10;;;;;;;6.51;77.15;96257.72;4988272;28;20066;-73
2023/04/13 05:29:58;;;;;;;0.20;0.20;;;;;;;6.46;77.62;96271.56;4998319;28;20043;-73
2023/04/13 05:32:27;;;;;;;0.32;0.30;;;;;;;6.47;77.25;96254.63;4970104;28;20195;-73
2023/04/13 05:34:58;;;;;;;0.25;0.25;;;;;;;6.45;77.28;96264.63;4986353;28;20043;-73
2023/04/13 05:37:27;;;;;;;0.22;0.22;;;;;;;6.52;77.10;96254.88;4977437;28;20355;-73
2023/04/13 05:39:55;;;;;;;0.25;0.25;;;;;;;6.47;77.25;96264.41;4968866;28;20047;-72
2023/04/13 05:42:30;;;;;;;0.43;0.43;;;;;;;6.49;77.27;96265.84;4972141;28;20450;-73
2023/04/13 05:44:58;;;;;;;0.30;0.20;;;;;;;6.51;76.91;96263.00;4986446;28;20050;-73
2023/04/13 05:47:28;;;;;;;0.43;0.43;;;;;;;6.59;76.63;96273.41;4971427;28;20461;-71
2023/04/13 05:50:02;;;;;;;0.20;0.20;;;;;;;6.55;76.43;96275.63;4981449;28;20038;-71
2023/04/13 05:52:31;;;;;;;0.25;0.25;;;;;;;6.53;76.30;96276.88;4971045;28;20042;-71
2023/04/13 05:54:58;;;;;;;0.20;0.20;;;;;;;6.53;76.49;96276.88;4979657;28;20050;-71
2023/04/13 05:57:26;;;;;;;0.40;0.40;;;;;;;6.49;76.56;96281.75;4985265;28;20046;-72
2023/04/13 05:59:56;;;;;;;0.45;0.45;;;;;;;6.55;76.09;96290.72;4973475;28;20046;-72
2023/04/13 06:02:27;;;;;;;0.20;0.20;;;;;;;6.61;75.92;96289.94;4972389;28;20541;-72
2023/04/13 06:04:55;;;;;;;0.30;0.30;;;;;;;6.56;75.88;96293.19;4982118;28;20058;-72
2023/04/13 06:07:23;;;;;;;0.40;0.40;;;;;;;6.57;75.19;96292.16;4975719;28;20439;-71
2023/04/13 06:09:51;;;;;;;0.35;0.35;;;;;;;6.59;74.96;96287.47;4968831;28;20051;-73
2023/04/13 06:12:19;;;;;;;0.25;0.25;;;;;;;6.59;74.95;96286.66;4974890;28;20548;-71
2023/04/13 06:14:47;;;;;;;0.10;0.10;;;;;;;6.63;74.63;96282.59;4974128;28;20520;-72
2023/04/13 06:17:16;;;;;;;0.30;0.30;;;;;;;6.68;74.79;96290.75;5006443;28;20508;-71
2023/04/13 06:19:44;;;;;;;0.35;0.35;;;;;;;6.74;74.26;96300.56;4972555;28;20035;-71
2023/04/13 06:22:12;;;;;;;0.43;0.43;;;;;;;6.68;74.25;96287.28;4967820;28;20113;-71
2023/04/13 06:24:41;;;;;;;0.30;0.30;;;;;;;6.71;74.17;96293.00;4964303;28;20419;-71
2023/04/13 06:27:11;;;;;;;0.40;0.40;;;;;;;6.71;73.72;96285.06;4973379;28;20506;-71
2023/04/13 06:29:42;;;;;;;0.10;0.10;;;;;;;6.70;72.95;96278.13;4979150;28;20573;-71
2023/04/13 06:32:11;;;;;;;0.30;0.30;;;;;;;6.71;72.79;96276.28;5008098;28;20042;-71
2023/04/13 06:34:40;;;;;;;0.20;0.20;;;;;;;6.68;72.68;96263.44;4977037;28;20144;-71
2023/04/13 06:37:08;;;;;;;0.20;0.20;;;;;;;6.69;72.71;96273.00;4976617;28;20089;-72
2023/04/13 06:39:48;;;;;;;0.35;0.35;;;;;;;6.76;72.56;96279.94;4976256;28;20102;-71
2023/04/13 06:42:18;;;;;;;0.30;0.30;;;;;;;6.84;72.77;96285.06;4973336;28;20046;-72
2023/04/13 06:44:57;;;;;;;0.20;0.20;;;;;;;6.84;72.52;96279.78;4972096;28;20049;-71
2023/04/13 06:47:30;;;;;;;0.73;0.73;;;;;;;6.80;71.80;96275.88;4974181;28;20085;-71
2023/04/13 06:50:03;;;;;;;0.43;0.43;;;;;;;6.82;71.52;96288.94;4972482;28;20109;-71
2023/04/13 06:52:31;;;;;;;0.52;0.52;;;;;;;6.87;71.33;96291.78;4971399;28;20049;-71
2023/04/13 06:54:58;;;;;;;0.28;0.28;;;;;;;6.90;71.24;96294.03;5001248;28;20126;-71
2023/04/13 06:57:32;;;;;;;0.22;0.22;;;;;;;6.92;71.00;96290.16;4976566;28;20055;-71
2023/04/13 07:00:00;;;;;;;0.22;0.22;;;;;;;6.85;70.37;96313.19;4968267;28;20482;-71
2023/04/13 07:02:29;;;;;;;0.20;0.20;;;;;;;6.95;69.93;96302.22;4972609;28;20053;-74
2023/04/13 07:04:58;;;;;;;0.22;0.22;;;;;;;6.91;70.13;96309.75;4986455;28;20544;-71
2023/04/13 07:07:28;;;;;;;0.20;0.20;;;;;;;7.00;69.86;96323.63;4971536;28;20047;-71
2023/04/13 07:09:56;;;;;;;0.15;0.15;;;;;;;6.91;69.14;96327.50;4985658;28;20047;-71
2023/04/13 07:12:26;;;;;;;0.30;0.30;;;;;;;6.98;69.45;96325.66;4979886;28;20105;-71
2023/04/13 07:14:54;;;;;;;0.13;0.13;;;;;;;6.94;68.47;96330.56;4972468;28;20395;-71
2023/04/13 07:17:23;;;;;;;0.43;0.43;;;;;;;6.97;68.73;96327.50;5041975;23;20045;-72
2023/04/13 07:19:50;;;;;;;0.30;0.30;;;;;;;7.12;68.59;96334.44;5021539;28;20093;-72
2023/04/13 07:22:18;;;;;;;0.20;0.20;;;;;;;7.14;67.39;96341.19;5011961;28;20108;-72
2023/04/13 07:24:49;;;;;;;0.28;0.28;;;;;;;7.17;67.22;96339.94;5007179;28;20042;-73
2023/04/13 07:27:19;;;;;;;0.40;0.40;;;;;;;7.20;66.21;96319.13;5004334;28;20133;-72
2023/04/13 07:29:47;;;;;;;0.22;0.22;;;;;;;7.25;66.44;96342.41;5025134;28;20041;-72
2023/04/13 07:32:19;;;;;;;0.40;0.40;;;;;;;7.33;66.72;96347.50;5009172;28;20049;-73
2023/04/13 07:34:47;;;;;;;0.22;0.22;;;;;;;7.44;66.08;96340.75;5010903;28;20700;-73
2023/04/13 07:37:15;;;;;;;0.22;0.22;;;;;;;7.36;65.21;96332.00;5010718;28;20038;-72
2023/04/13 07:39:43;;;;;;;0.30;0.30;;;;;;;7.43;65.48;96333.81;5009027;28;20133;-72
2023/04/13 07:42:12;;;;;;;0.13;0.13;;;;;;;7.46;65.83;96325.44;5010620;28;20130;-73
2023/04/13 07:44:45;;;;;;;0.22;0.22;;;;;;;7.49;65.18;96335.63;5009783;28;20038;-73
2023/04/13 07:47:13;;;;;;;0.20;0.20;;;;;;;7.58;65.08;96337.84;5008526;28;20568;-73
2023/04/13 07:49:43;;;;;;;0.30;0.30;;;;;;;7.63;65.07;96339.91;5021295;28;20141;-73
2023/04/13 07:52:14;;;;;;;0.30;0.30;;;;;;;7.70;64.26;96351.31;5009864;28;20120;-73
2023/04/13 07:54:42;;;;;;;0.40;0.40;;;;;;;7.72;64.56;96358.06;5007801;28;20539;-73
2023/04/13 07:57:12;;;;;;;0.13;0.13;;;;;;;7.76;64.75;96365.63;5010304;28;20128;-73
2023/04/13 07:59:48;;;;;;;0.20;0.20;;;;;;;7.83;65.07;96369.91;5008544;28;20046;-73
2023/04/13 08:02:17;;;;;;;0.10;0.10;;;;;;;7.82;64.70;96359.47;5008088;28;20512;-73
2023/04/13 08:04:48;;;;;;;0.25;0.25;;;;;;;7.74;64.45;96363.19;5027676;28;20383;-73
2023/04/13 08:07:21;;;;;;;0.30;0.30;;;;;;;7.76;64.54;96373.59;5005956;28;20049;-74
2023/04/13 08:09:51;;;;;;;0.40;0.40;;;;;;;7.76;64.31;96339.06;5008671;28;20421;-73
2023/04/13 08:12:21;;;;;;;0.22;0.22;;;;;;;7.67;64.39;96368.50;5008650;28;20038;-72
2023/04/13 08:14:51;;;;;;;0.17;0.15;;;;;;;7.68;64.77;96382.59;5001969;28;20473;-74
2023/04/13 08:17:21;;;;;;;0.20;0.20;;;;;;;7.70;65.10;96375.22;5007394;28;20121;-73
2023/04/13 08:19:48;;;;;;;0.30;0.30;;;;;;;7.81;65.24;96382.56;5002686;28;20043;-73
2023/04/13 08:22:17;;;;;;;0.28;0.28;;;;;;;7.84;64.56;96382.16;5007627;28;20088;-74
2023/04/13 08:24:45;;;;;;;0.22;0.22;;;;;;;7.82;64.85;96388.69;5004491;28;20042;-73
2023/04/13 08:27:13;;;;;;;0.20;0.20;;;;;;;7.81;64.67;96392.38;5007644;28;20117;-73
2023/04/13 08:29:42;;;;;;;0.30;0.20;;;;;;;7.80;64.72;96385.41;5003465;28;20057;-73
2023/04/13 08:32:10;;;;;;;0.20;0.20;;;;;;;7.78;64.84;96382.19;5010737;28;20056;-73
2023/04/13 08:34:38;;;;;;;0.20;0.20;;;;;;;7.76;65.17;96386.88;5003255;28;20046;-74
2023/04/13 08:37:05;;;;;;;0.20;0.20;;;;;;;7.81;65.52;96384.41;5013479;28;20038;-73
2023/04/13 08:39:35;;;;;;;0.20;0.20;;;;;;;7.82;65.31;96391.34;5011161;28;20128;-74
2023/04/13 08:42:03;;;;;;;0.20;0.20;;;;;;;7.84;65.64;96382.16;5009954;28;20041;-73
2023/04/13 08:44:35;;;;;;;0.32;0.32;;;;;;;7.85;65.16;96389.09;5004182;28;20045;-73
2023/04/13 08:47:04;;;;;;;0.43;0.43;;;;;;;7.76;65.19;96394.84;5023617;28;20068;-74
2023/04/13 08:49:34;;;;;;;0.30;0.30;;;;;;;7.73;65.48;96396.88;5007284;28;20132;-74
2023/04/13 08:52:11;;;;;;;0.20;0.20;;;;;;;7.80;65.73;96396.84;5016923;28;20041;-73
2023/04/13 08:54:44;;;;;;;0.10;0.10;;;;;;;7.82;65.26;96399.31;5007748;28;20046;-73
2023/04/13 08:57:20;;;;;;;0.13;0.13;;;;;;;7.81;65.08;96403.81;5018716;28;20104;-74
2023/04/13 08:59:50;;;;;;;0.20;0.20;;;;;;;7.84;65.10;96398.09;5023395;28;20046;-73
2023/04/13 09:02:22;;;;;;;0.30;0.30;;;;;;;7.87;65.61;96391.56;5002970;28;20096;-74
2023/04/13 09:04:54;;;;;;;0.22;0.22;;;;;;;7.99;64.94;96397.88;5004139;28;20045;-74
2023/04/13 09:07:26;;;;;;;0.20;0.20;;;;;;;7.98;65.41;96389.09;5009532;28;20046;-74
2023/04/13 09:09:59;;;;;;;0.10;0.10;;;;;;;8.06;65.12;96390.69;5005903;28;20044;-73
2023/04/13 09:12:27;;;;;;;0.20;0.20;;;;;;;8.06;64.49;96398.66;5009975;28;20598;-73
2023/04/13 09:14:55;;;;;;;0.10;0.10;;;;;;;8.07;64.74;96402.97;5007483;28;20116;-73
2023/04/13 09:17:27;;;;;;;0.20;0.20;;;;;;;8.08;64.77;96407.25;5008940;28;20042;-73
2023/04/13 09:19:57;;;;;;;0.32;0.32;;;;;;;8.16;64.65;96401.69;5010374;28;20041;-74
2023/04/13 09:22:24;;;;;;;0.28;0.28;;;;;;;8.11;64.57;96398.84;5004291;28;20056;-74
2023/04/13 09:24:52;;;;;;;0.30;0.30;;;;;;;8.09;65.26;96400.91;5000828;28;20049;-73
2023/04/13 09:27:20;;;;;;;0.30;0.30;;;;;;;8.14;64.53;96408.25;5009555;28;20041;-74
2023/04/13 09:29:49;;;;;;;0.30;0.30;;;;;;;8.07;64.57;96405.63;5008403;28;20054;-73
2023/04/13 09:32:19;;;;;;;0.30;0.30;;;;;;;8.04;64.30;96406.03;5009962;28;20408;-73
2023/04/13 09:34:58;;;;;;;0.40;0.40;;;;;;;8.02;64.66;96413.38;4999863;28;20445;-73
2023/04/13 09:37:32;;;;;;;0.22;0.22;;;;;;;8.08;64.62;96404.59;5009272;28;20053;-72
2023/04/13 09:40:10;;;;;;;0.17;0.17;;;;;;;8.19;64.33;96411.91;4999707;28;20038;-72
2023/04/13 09:42:39;;;;;;;0.22;0.22;;;;;;;8.21;63.99;96406.38;5009933;28;20528;-73
2023/04/13 09:45:07;;;;;;;0.20;0.20;;;;;;;8.16;63.36;96403.53;5005935;28;20547;-73
2023/04/13 09:47:35;;;;;;;0.20;0.20;;;;;;;8.10;63.62;96413.16;4998210;28;20108;-75
2023/04/13 09:50:05;;;;;;;0.43;0.30;;;;;;;8.27;63.19;96408.22;5002460;28;20354;-72
2023/04/13 09:52:33;;;;;;;0.20;0.20;;;;;;;8.35;63.37;96410.66;5003614;28;20038;-73
2023/04/13 09:55:01;;;;;;;0.20;0.20;;;;;;;8.50;63.49;96407.75;5002434;28;20073;-73
2023/04/13 09:57:30;;;;;;;0.32;0.32;;;;;;;8.54;63.64;96411.59;5010357;28;20445;-74
2023/04/13 09:59:59;;;;;;;0.17;0.17;;;;;;;8.63;63.25;96397.03;5008319;28;20046;-73
2023/04/13 10:02:39;;;;;;;0.20;0.20;;;;;;;8.70;62.79;96405.81;5009230;28;20517;-73
2023/04/13 10:05:09;;;;;;;0.28;0.28;;;;;;;8.59;63.16;96412.63;5006299;28;20088;-73
2023/04/13 10:07:38;;;;;;;0.20;0.20;;;;;;;8.61;63.23;96397.28;5004741;28;20511;-73
2023/04/13 10:10:07;;;;;;;0.52;0.52;;;;;;;8.71;63.06;96404.81;5008138;28;20034;-72
2023/04/13 10:12:36;;;;;;;0.22;0.22;;;;;;;8.63;62.55;96407.69;5007800;28;20046;-73
2023/04/13 10:15:11;;;;;;;0.20;0.20;;;;;;;8.72;62.93;96401.13;5005196;28;20053;-73
2023/04/13 10:17:44;;;;;;;0.22;0.22;;;;;;;8.73;62.80;96408.84;5010031;28;20100;-73
2023/04/13 10:20:14;;;;;;;0.20;0.20;;;;;;;8.71;62.27;96418.09;5006030;28;20052;-75
2023/04/13 10:22:44;;;;;;;0.30;0.30;;;;;;;8.69;62.01;96417.50;5010536;28;20046;-75
2023/04/13 10:25:13;;;;;;;0.20;0.20;;;;;;;8.55;61.73;96413.25;5003644;28;20041;-73
2023/04/13 10:27:59;;;;;;;0.25;0.25;;;;;;;8.60;62.07;96418.75;5009093;28;20053;-73
2023/04/13 10:30:27;;;;;;;0.22;0.22;;;;;;;8.49;62.32;96412.25;5008778;28;20038;-73
2023/04/13 10:33:02;;;;;;;0.38;0.38;;;;;;;8.59;62.38;96406.50;5009169;28;20887;-73
2023/04/13 10:35:35;;;;;;;0.20;0.20;;;;;;;8.53;62.56;96407.31;5010022;28;20060;-73
2023/04/13 10:38:03;;;;;;;0.32;0.32;;;;;;;8.63;62.48;96408.50;5007126;28;20085;-73
2023/04/13 10:40:41;;;;;;;0.10;0.10;;;;;;;8.81;61.37;96413.13;5006882;28;20045;-72
2023/04/13 10:43:09;;;;;;;0.32;0.32;;;;;;;8.79;61.24;96408.03;5006512;28;20115;-72
2023/04/13 10:45:37;;;;;;;0.20;0.20;;;;;;;8.76;60.79;96399.63;5008585;28;20077;-72
2023/04/13 10:48:05;;;;;;;0.20;0.20;;;;;;;8.85;60.75;96417.00;5006208;28;20042;-72
2023/04/13 10:50:34;;;;;;;0.25;0.25;;;;;;;8.94;60.59;96421.03;5009511;28;20080;-72
2023/04/13 10:53:03;;;;;;;0.40;0.40;;;;;;;8.88;61.01;96421.06;5007495;28;20092;-72
2023/04/13 10:55:32;;;;;;;0.10;0.10;;;;;;;9.03;61.37;96422.41;5012550;28;20042;-73
2023/04/13 10:58:01;;;;;;;0.43;0.43;;;;;;;9.05;61.00;96422.19;5010157;28;20100;-72
2023/04/13 11:00:31;;;;;;;0.20;0.20;;;;;;;9.17;60.49;96421.31;5010769;28;20042;-72
2023/04/13 11:03:14;;;;;;;0.15;0.15;;;;;;;9.17;60.62;96408.00;5008438;28;20117;-72
2023/04/13 11:05:44;;;;;;;0.20;0.20;;;;;;;9.22;59.63;96418.00;5011408;28;20038;-74
2023/04/13 11:08:17;;;;;;;0.32;0.32;;;;;;;9.25;59.94;96406.09;5009416;28;20058;-74
2023/04/13 11:10:50;;;;;;;0.40;0.30;;;;;;;9.28;59.62;96406.50;5014839;28;20049;-72
2023/04/13 11:13:17;;;;;;;0.20;0.20;;;;;;;9.26;59.67;96407.72;5007469;28;20046;-72
2023/04/13 11:15:45;;;;;;;0.32;0.32;;;;;;;9.24;60.18;96404.50;5009409;28;20054;-73
2023/04/13 11:18:13;;;;;;;0.50;0.50;;;;;;;9.32;60.50;96413.03;5006059;28;20452;-73
2023/04/13 11:20:41;;;;;;;0.20;0.20;;;;;;;9.45;60.33;96415.56;5009556;28;20042;-75
2023/04/13 11:23:17;;;;;;;0.77;0.77;;;;;;;9.52;60.45;96419.00;5011954;28;20042;-74
2023/04/13 11:25:53;;;;;;;0.28;0.28;;;;;;;9.45;58.24;96425.41;5010231;28;20046;-73
2023/04/13 11:28:22;;;;;;;0.22;0.22;;;;;;;9.52;58.37;96423.53;5008275;28;20117;-74
2023/04/13 11:30:54;;;;;;;0.40;0.40;;;;;;;9.39;58.26;96418.28;5014898;28;20056;-74
2023/04/13 11:33:26;;;;;;;0.10;0.10;;;;;;;9.44;58.63;96413.16;5007538;28;20038;-74
2023/04/13 11:35:55;;;;;;;0.43;0.43;;;;;;;9.49;58.60;96418.63;5007129;28;20444;-73
2023/04/13 11:38:24;;;;;;;0.35;0.35;;;;;;;9.50;58.83;96417.59;5022181;28;20038;-74
2023/04/13 11:40:52;;;;;;;0.15;0.15;;;;;;;9.48;58.79;96414.31;5002981;28;20042;-72
2023/04/13 11:43:28;;;;;;;0.22;0.22;;;;;;;9.58;59.22;96415.47;5012308;28;20056;-72
2023/04/13 11:45:56;;;;;;;0.43;0.43;;;;;;;9.74;58.88;96416.78;5010491;28;20046;-75
2023/04/13 11:48:25;;;;;;;0.22;0.22;;;;;;;9.76;59.06;96427.22;5007263;28;20042;-72
2023/04/13 11:50:52;;;;;;;0.22;0.22;;;;;;;9.59;59.32;96429.59;5010943;28;20128;-71
2023/04/13 11:53:20;;;;;;;0.25;0.25;;;;;;;9.58;59.60;96441.28;5006316;28;20046;-74
2023/04/13 11:55:49;;;;;;;0.30;0.30;;;;;;;9.61;60.37;96448.84;5015049;28;20046;-72